Time;durP1;ratioP1;P1;durP2;ratioP2;P2;SDS_P1;SDS_P2;PMS_P1;PMS_P2;Temp;Humidity;BMP_temperature;BMP_pressure;BME280_temperature;BME280_humidity;BME280_pressure;Samples;Min_cycle;Max_cycle;Signal;HPM_P1;HPM_P2
2021/05/10 00:01:59;;;;;;;3.33;1.98;;;;;;;9.36;88.17;101925.09;1765789;80;22821;-62
2021/05/10 00:04:27;;;;;;;2.40;1.85;;;;;;;9.34;88.07;101929.11;1765325;80;21116;-62
2021/05/10 00:06:55;;;;;;;4.20;1.80;;;;;;;9.33;88.34;101933.17;1737638;81;21621;-62
2021/05/10 00:09:22;;;;;;;3.27;1.90;;;;;;;9.34;88.58;101929.59;1739139;81;21144;-62
2021/05/10 00:11:50;;;;;;;3.77;1.90;;;;;;;9.35;88.65;101928.68;1754660;80;21577;-62
2021/05/10 00:14:27;;;;;;;4.00;2.10;;;;;;;9.34;88.72;101926.44;1744910;81;21202;-62
2021/05/10 00:16:49;;;;;;;3.15;2.00;;;;;;;9.36;88.80;101925.09;1740571;81;21466;-62
2021/05/10 00:19:20;;;;;;;6.15;2.05;;;;;;;9.35;88.86;101922.86;1766760;81;21131;-62
2021/05/10 00:21:47;;;;;;;2.92;1.92;;;;;;;9.37;88.97;101923.73;1742512;81;21118;-62
2021/05/10 00:24:17;;;;;;;2.83;1.77;;;;;;;9.38;89.03;101920.14;1717642;82;21109;-62
2021/05/10 00:26:46;;;;;;;2.58;1.95;;;;;;;9.37;89.11;101925.06;1716310;83;21426;-62
2021/05/10 00:29:18;;;;;;;2.65;1.95;;;;;;;9.37;89.09;101922.39;1728239;82;21123;-62
2021/05/10 00:31:47;;;;;;;3.80;2.02;;;;;;;9.37;88.94;101921.05;1706544;83;22065;-62
2021/05/10 00:34:15;;;;;;;3.65;1.95;;;;;;;9.36;89.05;101923.29;1745227;81;21105;-62
2021/05/10 00:36:43;;;;;;;2.92;1.67;;;;;;;9.38;89.11;101927.30;1737987;81;21107;-62
2021/05/10 00:39:11;;;;;;;3.15;1.87;;;;;;;9.37;89.22;101930.88;1739367;81;22135;-62
2021/05/10 00:41:38;;;;;;;3.05;1.95;;;;;;;9.38;89.24;101931.32;1752667;81;21468;-61
2021/05/10 00:44:07;;;;;;;4.13;1.90;;;;;;;9.36;89.21;101921.95;1712430;81;21471;-62
2021/05/10 00:46:35;;;;;;;2.25;1.92;;;;;;;9.36;89.08;101925.09;1766678;81;21116;-61
2021/05/10 00:49:04;;;;;;;2.30;1.85;;;;;;;9.34;88.99;101926.44;1693913;82;21129;-61
2021/05/10 00:51:33;;;;;;;4.22;2.27;;;;;;;9.32;89.25;101918.88;1754843;81;22110;-62
2021/05/10 00:54:01;;;;;;;2.90;2.00;;;;;;;9.31;89.33;101922.47;1736753;81;21556;-61
2021/05/10 00:56:28;;;;;;;2.50;2.08;;;;;;;9.27;89.57;101916.25;1736966;82;21127;-62
2021/05/10 00:58:56;;;;;;;2.35;1.95;;;;;;;9.26;89.72;101914.47;1701566;83;21155;-61
2021/05/10 01:01:24;;;;;;;2.90;1.77;;;;;;;9.27;90.25;101916.72;1732560;81;21103;-61
2021/05/10 01:03:53;;;;;;;4.85;2.22;;;;;;;9.26;90.63;101916.28;1751208;80;21133;-62
2021/05/10 01:06:21;;;;;;;3.95;2.27;;;;;;;9.24;90.77;101918.96;1737279;81;21159;-62
2021/05/10 01:08:50;;;;;;;2.35;1.85;;;;;;;9.25;90.99;101915.84;1737100;81;21557;-62
2021/05/10 01:11:18;;;;;;;4.90;2.12;;;;;;;9.23;91.21;101909.62;1731851;81;21572;-62
2021/05/10 01:13:46;;;;;;;3.20;2.30;;;;;;;9.23;91.83;101908.30;1737920;81;21109;-62
2021/05/10 01:16:15;;;;;;;4.35;2.05;;;;;;;9.24;92.08;101907.39;1719109;81;21151;-61
2021/05/10 01:18:44;;;;;;;2.15;1.90;;;;;;;9.24;92.46;101906.05;1752103;80;21153;-62
2021/05/10 01:21:12;;;;;;;3.72;2.22;;;;;;;9.25;92.31;101910.49;1758747;80;21415;-61
2021/05/10 01:23:41;;;;;;;2.27;1.90;;;;;;;9.24;92.40;101899.36;1738313;81;21665;-62
2021/05/10 01:26:08;;;;;;;3.50;2.27;;;;;;;9.22;92.69;101904.71;1737586;81;21580;-61
2021/05/10 01:28:36;;;;;;;5.90;2.50;;;;;;;9.21;92.92;101898.93;1736918;82;21361;-61
2021/05/10 01:31:04;;;;;;;5.05;2.02;;;;;;;9.21;93.14;101895.38;1758072;80;21124;-62
2021/05/10 01:33:31;;;;;;;3.22;2.27;;;;;;;9.21;93.17;101897.59;1766938;80;21580;-61
2021/05/10 01:35:59;;;;;;;3.15;2.10;;;;;;;9.21;93.01;101891.37;1741993;80;21145;-62
2021/05/10 01:38:27;;;;;;;3.25;2.02;;;;;;;9.21;92.94;101894.05;1737544;81;21115;-61
2021/05/10 01:40:55;;;;;;;3.92;1.80;;;;;;;9.22;92.86;101894.48;1738781;82;21189;-61
2021/05/10 01:43:23;;;;;;;3.77;2.12;;;;;;;9.20;92.58;101893.61;1718625;82;21142;-62
2021/05/10 01:45:50;;;;;;;4.72;2.10;;;;;;;9.17;92.31;101900.77;1713726;82;21138;-62
2021/05/10 01:48:18;;;;;;;4.42;2.20;;;;;;;9.15;91.94;101901.21;1730315;82;21532;-62
2021/05/10 01:50:53;;;;;;;2.42;2.00;;;;;;;9.12;91.73;101896.36;1742055;82;21632;-61
2021/05/10 01:53:21;;;;;;;4.10;2.30;;;;;;;9.09;91.58;101895.94;1715437;82;22391;-62
2021/05/10 01:55:48;;;;;;;3.58;2.22;;;;;;;9.04;91.48;101895.10;1733327;81;21155;-62
2021/05/10 01:58:16;;;;;;;3.17;2.02;;;;;;;9.02;91.54;101892.90;1767270;80;21152;-61
2021/05/10 02:00:47;;;;;;;5.03;2.30;;;;;;;9.01;91.56;101892.46;1764542;81;21105;-61
2021/05/10 02:03:21;;;;;;;3.62;2.33;;;;;;;9.00;91.65;101895.57;1738224;81;21632;-60
2021/05/10 02:05:50;;;;;;;5.28;2.70;;;;;;;8.98;91.80;101898.72;1740764;81;21943;-60
2021/05/10 02:08:18;;;;;;;3.75;2.10;;;;;;;8.97;91.74;101894.73;1739463;81;21146;-61
2021/05/10 02:10:49;;;;;;;3.05;2.30;;;;;;;8.96;91.74;101900.99;1735338;82;21168;-61
2021/05/10 02:13:24;;;;;;;3.75;2.60;;;;;;;8.97;91.71;101900.09;1737310;81;21185;-61
2021/05/10 02:15:57;;;;;;;5.37;2.58;;;;;;;8.96;91.85;101902.33;1737003;82;21122;-63
2021/05/10 02:18:29;;;;;;;5.10;2.15;;;;;;;8.97;91.87;101896.95;1783012;80;21235;-61
2021/05/10 02:20:59;;;;;;;5.65;2.33;;;;;;;8.97;91.75;101892.94;1740421;81;21165;-61
2021/05/10 02:23:32;;;;;;;2.87;2.08;;;;;;;8.94;91.67;101898.75;1752893;81;21144;-61
2021/05/10 02:26:03;;;;;;;2.45;2.22;;;;;;;8.94;91.48;101901.42;1735251;82;21008;-60
2021/05/10 02:28:32;;;;;;;5.65;2.10;;;;;;;8.93;91.33;101905.00;1737124;82;21119;-63
2021/05/10 02:31:01;;;;;;;5.42;2.40;;;;;;;8.94;91.26;101912.13;1737324;81;21032;-62
2021/05/10 02:33:32;;;;;;;3.42;2.30;;;;;;;8.95;91.07;101912.56;1766269;81;21235;-62
2021/05/10 02:36:00;;;;;;;2.72;2.17;;;;;;;8.97;90.87;101915.67;1761693;81;21657;-60
2021/05/10 02:38:28;;;;;;;4.30;2.40;;;;;;;8.97;90.64;101920.15;1738392;81;21405;-61
2021/05/10 02:40:57;;;;;;;4.35;2.45;;;;;;;8.98;90.48;101920.12;1714047;82;21144;-61
2021/05/10 02:43:25;;;;;;;6.97;2.08;;;;;;;9.00;90.31;101921.45;1755592;80;21550;-61
2021/05/10 02:45:53;;;;;;;5.95;2.10;;;;;;;9.03;89.95;101921.42;1767327;80;21133;-61
2021/05/10 02:48:22;;;;;;;3.33;2.08;;;;;;;9.04;89.70;101929.88;1766921;81;21699;-61
2021/05/10 02:50:50;;;;;;;5.95;3.15;;;;;;;9.07;89.44;101924.50;1767366;80;21125;-61
2021/05/10 02:53:18;;;;;;;2.75;2.25;;;;;;;9.09;89.15;101931.19;1750344;81;21109;-61
2021/05/10 02:55:46;;;;;;;5.92;2.22;;;;;;;9.13;88.68;101932.92;1737975;81;21375;-61
2021/05/10 02:58:14;;;;;;;2.85;2.40;;;;;;;9.16;88.24;101927.53;1753358;81;21141;-62
2021/05/10 03:00:42;;;;;;;4.83;2.30;;;;;;;9.21;87.89;101924.81;1765019;81;21117;-62
2021/05/10 03:03:09;;;;;;;3.77;2.05;;;;;;;9.25;87.25;101930.09;1754508;81;21436;-61
2021/05/10 03:05:40;;;;;;;2.67;1.82;;;;;;;9.31;86.73;101938.52;1752944;81;21119;-62
2021/05/10 03:08:08;;;;;;;2.60;2.00;;;;;;;9.38;85.80;101934.86;1753340;80;21965;-62
2021/05/10 03:10:36;;;;;;;2.55;2.00;;;;;;;9.47;85.03;101941.91;1737460;82;21114;-62
2021/05/10 03:13:04;;;;;;;4.90;1.77;;;;;;;9.54;84.04;101944.07;1739216;80;21114;-62
2021/05/10 03:15:31;;;;;;;3.67;1.98;;;;;;;9.61;83.45;101947.10;1737689;81;21130;-62
2021/05/10 03:17:59;;;;;;;5.15;2.02;;;;;;;9.70;83.14;101956.83;1725419;82;21146;-62
2021/05/10 03:20:29;;;;;;;4.05;1.98;;;;;;;9.80;82.66;101967.88;1736343;81;21268;-62
2021/05/10 03:22:57;;;;;;;2.55;1.98;;;;;;;9.89;82.36;101954.83;1739220;81;21171;-61
2021/05/10 03:25:24;;;;;;;4.70;2.15;;;;;;;9.98;81.73;101952.01;1766672;80;21205;-62
2021/05/10 03:27:52;;;;;;;3.98;2.42;;;;;;;10.11;81.04;101958.55;1766648;81;21159;-61
2021/05/10 03:30:24;;;;;;;4.72;2.12;;;;;;;10.17;80.37;101954.00;1737943;81;21125;-62
2021/05/10 03:32:52;;;;;;;4.40;2.22;;;;;;;10.22;80.26;101959.28;1767448;81;21672;-62
2021/05/10 03:35:21;;;;;;;4.65;2.50;;;;;;;10.33;80.00;101959.13;1736276;81;21177;-61
2021/05/10 03:37:50;;;;;;;5.80;2.05;;;;;;;10.43;79.56;101957.23;1721043;81;21135;-62
2021/05/10 03:40:19;;;;;;;2.47;2.10;;;;;;;10.51;79.09;101962.04;1731431;82;21533;-61
2021/05/10 03:42:47;;;;;;;5.55;2.25;;;;;;;10.59;78.83;101964.14;1727368;81;21536;-61
2021/05/10 03:45:16;;;;;;;10.13;2.98;;;;;;;10.68;78.64;101971.59;1735846;82;21379;-61
2021/05/10 03:47:45;;;;;;;15.23;2.90;;;;;;;10.77;78.36;101971.47;1736829;81;21601;-62
2021/05/10 03:50:19;;;;;;;18.92;3.30;;;;;;;10.92;77.87;101977.47;1745279;81;21227;-61
2021/05/10 03:52:48;;;;;;;7.12;2.30;;;;;;;10.96;77.26;101973.84;1742159;80;21137;-61
2021/05/10 03:55:18;;;;;;;5.28;2.55;;;;;;;11.00;77.26;101984.48;1805030;79;21083;-61
2021/05/10 03:57:47;;;;;;;6.47;2.33;;;;;;;11.06;77.05;101978.13;1719464;82;21218;-61
2021/05/10 04:00:17;;;;;;;4.05;2.33;;;;;;;11.14;76.83;101985.58;1757292;81;21883;-61
2021/05/10 04:02:45;;;;;;;6.03;2.20;;;;;;;11.26;76.45;101995.69;1756481;81;21911;-61
2021/05/10 04:11:03;;;;;;;5.80;2.27;;;;;;;11.77;75.26;102001.89;1743731;81;22120;-60
2021/05/10 04:16:07;;;;;;;6.20;2.40;;;;;;;12.14;74.32;101999.34;1755657;80;21161;-62
2021/05/10 04:18:35;;;;;;;4.40;2.20;;;;;;;12.33;73.78;101990.88;1755543;81;21164;-61
2021/05/10 04:21:05;;;;;;;2.47;1.90;;;;;;;12.50;73.50;101993.20;1751241;80;21167;-63
2021/05/10 04:23:32;;;;;;;4.87;1.67;;;;;;;12.70;72.97;101986.44;1746358;81;21363;-62
2021/05/10 04:26:03;;;;;;;6.08;2.22;;;;;;;12.85;72.35;101986.08;1728940;81;21165;-62
2021/05/10 04:28:34;;;;;;;5.37;2.80;;;;;;;13.01;72.11;101990.60;1737003;82;21477;-63
2021/05/10 04:31:02;;;;;;;3.00;2.00;;;;;;;13.17;71.59;101985.73;1723930;82;21562;-63
2021/05/10 04:33:32;;;;;;;3.20;1.95;;;;;;;13.30;70.77;101985.39;1737024;82;21136;-63
2021/05/10 04:36:00;;;;;;;4.95;1.90;;;;;;;13.43;70.46;101986.88;1747563;81;21592;-61
2021/05/10 04:38:28;;;;;;;4.90;1.90;;;;;;;13.58;69.52;101986.91;1748031;80;21158;-63
2021/05/10 04:40:59;;;;;;;3.17;1.90;;;;;;;13.71;68.52;101980.70;1736683;82;21706;-62
2021/05/10 04:43:26;;;;;;;2.25;1.87;;;;;;;13.83;67.49;101990.73;1761882;81;21109;-62
2021/05/10 04:45:59;;;;;;;2.95;1.62;;;;;;;13.94;66.72;101987.23;1766154;80;21675;-62
2021/05/10 04:48:25;;;;;;;6.42;1.62;;;;;;;14.11;65.86;101980.47;1767520;80;21375;-62
2021/05/10 04:50:53;;;;;;;6.80;1.90;;;;;;;14.28;65.03;101979.49;1758900;80;21177;-62
2021/05/10 04:53:21;;;;;;;2.60;1.70;;;;;;;14.47;64.22;101976.19;1766346;80;21695;-62
2021/05/10 04:55:49;;;;;;;4.35;2.00;;;;;;;14.60;62.39;101976.70;1763270;81;21138;-62
2021/05/10 04:58:17;;;;;;;3.60;2.00;;;;;;;14.69;61.36;101972.79;1737588;82;21655;-62
2021/05/10 05:00:46;;;;;;;5.08;1.70;;;;;;;14.74;60.06;101974.45;1753871;80;21543;-62
2021/05/10 05:03:14;;;;;;;2.70;1.80;;;;;;;14.81;59.55;101976.48;1723623;82;21513;-62
2021/05/10 05:05:43;;;;;;;3.75;1.70;;;;;;;14.86;58.19;101977.20;1736523;81;21128;-61
2021/05/10 05:08:11;;;;;;;4.25;1.98;;;;;;;14.96;57.93;101979.61;1747716;81;21505;-61
2021/05/10 05:10:39;;;;;;;4.50;2.02;;;;;;;15.01;56.98;101983.03;1748523;81;21551;-61
2021/05/10 05:13:07;;;;;;;4.20;1.98;;;;;;;15.09;55.81;101986.83;1738026;81;21358;-61
2021/05/10 05:15:36;;;;;;;3.12;1.60;;;;;;;15.17;55.72;101989.69;1736950;82;21003;-61
2021/05/10 05:18:04;;;;;;;7.75;2.20;;;;;;;15.26;54.82;101992.53;1758316;81;21562;-62
2021/05/10 05:20:36;;;;;;;9.63;1.90;;;;;;;15.33;54.35;101990.47;1763316;81;21123;-61
2021/05/10 05:23:02;;;;;;;2.25;1.80;;;;;;;15.42;53.95;101994.22;1707731;81;21137;-61
2021/05/10 05:25:32;;;;;;;5.53;1.98;;;;;;;15.51;53.54;101993.47;1741701;82;21577;-61
2021/05/10 05:28:00;;;;;;;6.25;2.17;;;;;;;15.57;53.15;101996.83;1744108;81;21614;-61
2021/05/10 05:30:29;;;;;;;5.33;2.12;;;;;;;15.68;52.63;102004.55;1724069;83;21145;-62
2021/05/10 05:32:58;;;;;;;4.17;2.60;;;;;;;15.79;51.96;102003.27;1723267;81;21969;-61
2021/05/10 05:35:26;;;;;;;2.60;1.70;;;;;;;15.87;52.12;102009.28;1748898;81;21106;-61
2021/05/10 05:37:54;;;;;;;5.15;1.98;;;;;;;15.97;52.18;102005.31;1741832;82;21394;-61
2021/05/10 05:40:24;;;;;;;5.78;1.82;;;;;;;16.10;51.73;102004.86;1810876;78;21110;-61
2021/05/10 05:42:52;;;;;;;7.53;1.95;;;;;;;16.17;51.12;101998.27;1794399;78;21121;-61
2021/05/10 05:45:20;;;;;;;3.15;2.08;;;;;;;16.23;51.29;101998.50;1783059;79;21663;-61
2021/05/10 05:47:48;;;;;;;5.67;2.10;;;;;;;16.28;51.58;101997.39;1782788;79;21086;-63
2021/05/10 05:50:16;;;;;;;3.90;2.05;;;;;;;16.32;51.33;102002.19;1783037;79;21367;-62
2021/05/10 05:52:44;;;;;;;8.35;1.95;;;;;;;16.32;51.36;102003.08;1813996;79;21110;-62
2021/05/10 05:55:13;;;;;;;3.87;1.72;;;;;;;16.35;50.35;102010.67;1814021;78;21408;-61
2021/05/10 05:57:44;;;;;;;3.27;2.05;;;;;;;16.35;50.54;102007.96;1810468;78;21087;-63
2021/05/10 06:00:13;;;;;;;3.08;2.00;;;;;;;16.39;50.52;102008.25;1802188;79;21405;-60
2021/05/10 06:02:41;;;;;;;6.92;2.65;;;;;;;16.48;50.38;102006.55;1727195;82;22126;-62
2021/05/10 06:05:11;;;;;;;6.37;2.25;;;;;;;16.61;50.67;102007.80;1740164;82;21129;-62
2021/05/10 06:07:45;;;;;;;3.52;1.90;;;;;;;16.74;50.29;102000.05;1719632;82;21145;-62
2021/05/10 06:10:16;;;;;;;3.98;1.60;;;;;;;16.91;49.49;101997.13;1747168;81;21635;-62
2021/05/10 06:12:47;;;;;;;4.00;1.50;;;;;;;17.08;47.94;102001.84;1792060;79;21522;-62
2021/05/10 06:15:14;;;;;;;4.08;1.50;;;;;;;17.21;46.40;102013.53;1782009;80;22144;-62
2021/05/10 06:17:42;;;;;;;6.97;1.80;;;;;;;17.30;45.92;102017.19;1810409;79;21126;-62
2021/05/10 06:20:11;;;;;;;3.70;2.15;;;;;;;17.35;45.82;102023.28;1803709;78;21489;-62
2021/05/10 06:22:39;;;;;;;3.80;1.70;;;;;;;17.39;46.09;102022.23;1800219;79;21075;-62
2021/05/10 06:25:10;;;;;;;5.62;1.70;;;;;;;17.40;45.56;102021.28;1799539;78;21086;-62
2021/05/10 06:27:38;;;;;;;3.00;1.62;;;;;;;17.46;44.70;102018.29;1783313;79;21148;-62
2021/05/10 06:30:08;;;;;;;4.53;1.90;;;;;;;17.49;44.97;102024.52;1814008;79;21094;-62
2021/05/10 06:32:37;;;;;;;5.80;1.60;;;;;;;17.48;45.58;102026.37;1812744;79;21501;-62
2021/05/10 06:35:06;;;;;;;5.95;1.77;;;;;;;17.44;44.23;102022.91;1814000;78;21090;-61
2021/05/10 06:37:35;;;;;;;1.62;1.47;;;;;;;17.51;44.59;102028.04;1822492;78;20978;-62
2021/05/10 06:40:03;;;;;;;6.28;1.70;;;;;;;17.56;44.13;102024.19;1795662;78;22197;-62
2021/05/10 06:42:31;;;;;;;6.67;2.00;;;;;;;17.56;44.97;102026.00;1796477;78;21168;-63
2021/05/10 06:45:01;;;;;;;5.80;2.00;;;;;;;17.58;45.16;102020.06;1793609;79;21134;-61
2021/05/10 06:47:29;;;;;;;2.02;1.52;;;;;;;17.64;44.57;102020.23;1805374;78;21105;-62
2021/05/10 06:49:57;;;;;;;3.55;1.50;;;;;;;17.71;43.05;102014.97;1755798;81;21186;-62
2021/05/10 06:52:24;;;;;;;5.45;2.17;;;;;;;17.76;41.86;102020.56;1771329;80;21202;-62
2021/05/10 06:54:53;;;;;;;3.80;2.47;;;;;;;17.83;43.93;102025.73;1760508;80;21172;-63
2021/05/10 06:57:20;;;;;;;5.08;2.10;;;;;;;17.92;46.41;102022.59;1793955;78;21137;-61
2021/05/10 06:59:48;;;;;;;6.50;2.02;;;;;;;17.98;44.45;102028.22;1794534;78;21082;-60
2021/05/10 07:02:16;;;;;;;6.53;2.52;;;;;;;18.01;43.47;102021.29;1793753;78;21483;-62
2021/05/10 07:04:43;;;;;;;9.25;2.45;;;;;;;17.98;46.92;102024.15;1804301;78;21201;-62
2021/05/10 07:07:14;;;;;;;3.85;2.35;;;;;;;17.94;48.55;102028.83;1749726;81;21139;-62
2021/05/10 07:09:42;;;;;;;3.35;2.33;;;;;;;17.92;46.54;102030.73;1771151;80;21237;-62
2021/05/10 07:12:12;;;;;;;9.78;2.83;;;;;;;17.90;46.21;102027.21;1726703;81;21133;-61
2021/05/10 07:14:40;;;;;;;4.72;2.40;;;;;;;17.95;47.80;102025.65;1756175;81;21128;-61
2021/05/10 07:17:08;;;;;;;6.20;2.60;;;;;;;17.94;47.55;102027.47;1813542;77;21358;-61
2021/05/10 07:19:36;;;;;;;16.95;3.00;;;;;;;18.06;47.40;102031.97;1758897;80;21088;-61
2021/05/10 07:22:06;;;;;;;19.48;3.55;;;;;;;18.03;50.41;102023.03;1793896;78;21102;-61
2021/05/10 07:24:34;;;;;;;21.07;3.87;;;;;;;17.92;52.68;102028.02;1793731;79;21405;-62
2021/05/10 07:27:01;;;;;;;24.07;3.50;;;;;;;17.83;53.56;102024.38;1824598;78;21098;-62
2021/05/10 07:29:30;;;;;;;6.85;3.15;;;;;;;17.76;54.42;102020.56;1806749;78;21995;-62
2021/05/10 07:31:58;;;;;;;8.63;2.95;;;;;;;17.71;53.47;102021.75;1738394;82;21154;-62
2021/05/10 07:34:29;;;;;;;4.90;2.87;;;;;;;17.64;52.75;102022.49;1756683;80;21177;-63
2021/05/10 07:36:59;;;;;;;3.72;2.83;;;;;;;17.57;52.53;102023.70;1723904;83;21117;-63
2021/05/10 07:39:27;;;;;;;5.08;2.83;;;;;;;17.53;53.06;102028.39;1756160;80;21138;-64
2021/05/10 07:42:00;;;;;;;3.15;2.85;;;;;;;17.53;53.33;102023.43;1757455;81;21192;-61
2021/05/10 07:44:30;;;;;;;4.67;3.00;;;;;;;17.56;53.12;102031.42;1767171;80;21472;-62
2021/05/10 07:46:57;;;;;;;4.53;3.15;;;;;;;17.56;52.88;102024.64;1755650;81;21167;-61
2021/05/10 07:49:26;;;;;;;5.50;3.30;;;;;;;17.55;52.81;102024.23;1764095;79;21186;-62
2021/05/10 07:51:54;;;;;;;6.45;3.45;;;;;;;17.55;52.97;102025.14;1767216;80;21535;-61
2021/05/10 07:54:22;;;;;;;4.03;3.10;;;;;;;17.51;53.10;102020.80;1787097;79;22118;-62
2021/05/10 07:56:50;;;;;;;7.60;3.30;;;;;;;17.49;52.88;102021.81;1773329;80;21168;-62
2021/05/10 07:59:18;;;;;;;5.10;3.20;;;;;;;17.45;53.37;102027.38;1755433;81;21555;-63
2021/05/10 08:01:47;;;;;;;5.97;3.67;;;;;;;17.42;53.80;102020.73;1791429;79;21147;-62
2021/05/10 08:04:15;;;;;;;7.33;4.42;;;;;;;17.42;54.20;102024.80;1782068;79;21135;-59
2021/05/10 08:06:47;;;;;;;6.25;4.00;;;;;;;17.42;53.94;102027.51;1762055;80;21009;-62
2021/05/10 08:09:15;;;;;;;6.58;4.08;;;;;;;17.36;53.56;102025.08;1776410;79;21162;-62
2021/05/10 08:11:47;;;;;;;5.20;4.30;;;;;;;17.32;53.54;102012.58;1760599;80;21132;-62
2021/05/10 08:14:26;;;;;;;8.25;4.35;;;;;;;17.25;53.89;102017.87;1758112;80;22316;-62
2021/05/10 08:17:11;;;;;;;11.48;4.78;;;;;;;17.24;54.35;102018.36;1690820;80;21187;-63
2021/05/10 08:19:48;;;;;;;5.97;4.17;;;;;;;17.21;53.34;102018.95;1756648;80;21670;-62
2021/05/10 08:22:25;;;;;;;6.97;4.42;;;;;;;17.21;53.37;102020.31;1754153;80;22285;-62
2021/05/10 08:25:06;;;;;;;8.68;4.05;;;;;;;17.22;53.61;102016.16;1741498;81;21561;-62
2021/05/10 08:27:50;;;;;;;5.08;4.12;;;;;;;17.23;53.70;102014.34;1753594;81;21144;-62
2021/05/10 08:30:42;;;;;;;6.15;4.42;;;;;;;17.26;53.11;102013.75;1741341;81;21175;-61
2021/05/10 08:33:37;;;;;;;8.63;4.33;;;;;;;17.25;53.55;102009.73;1707585;80;21567;-62
2021/05/10 08:36:33;;;;;;;5.65;4.47;;;;;;;17.22;53.22;102012.59;1716796;81;21499;-62
2021/05/10 08:39:04;;;;;;;9.63;4.40;;;;;;;17.23;53.44;102010.28;1753265;80;21061;-62
2021/05/10 08:41:37;;;;;;;7.03;5.12;;;;;;;17.23;53.53;102008.92;1692180;82;21339;-60
2021/05/10 08:44:07;;;;;;;5.33;4.30;;;;;;;17.27;54.27;102007.84;1746683;80;21131;-61
2021/05/10 08:46:39;;;;;;;8.30;4.70;;;;;;;17.31;53.80;102007.64;1732134;82;21218;-61
2021/05/10 08:49:07;;;;;;;7.92;5.00;;;;;;;17.32;52.87;102001.73;1792115;78;21400;-62
2021/05/10 08:51:38;;;;;;;8.38;5.12;;;;;;;17.31;54.32;102005.39;1770576;79;21516;-62
2021/05/10 08:54:21;;;;;;;8.03;5.08;;;;;;;17.31;55.33;101999.97;1795139;79;21092;-62
2021/05/10 08:56:49;;;;;;;5.97;4.55;;;;;;;17.26;55.04;101999.30;1803272;79;21098;-61
2021/05/10 08:59:19;;;;;;;7.08;5.03;;;;;;;17.28;54.49;101996.94;1776325;79;21845;-62
2021/05/10 09:01:52;;;;;;;6.53;4.80;;;;;;;17.32;53.56;101992.25;1792438;79;21110;-62
2021/05/10 09:04:35;;;;;;;7.15;5.08;;;;;;;17.39;53.24;101989.70;1801821;79;21194;-63
2021/05/10 09:07:22;;;;;;;7.25;4.10;;;;;;;17.43;53.18;101994.48;1725472;82;21528;-62
2021/05/10 09:10:05;;;;;;;9.28;4.67;;;;;;;17.46;53.39;101984.86;1729602;81;21126;-62
2021/05/10 09:12:50;;;;;;;8.30;4.42;;;;;;;17.51;52.69;101980.59;1737820;81;22079;-62
2021/05/10 09:15:22;;;;;;;8.20;4.53;;;;;;;17.53;53.07;101983.66;1732453;81;21458;-62
2021/05/10 09:17:55;;;;;;;7.30;4.95;;;;;;;17.51;53.66;101983.30;1771893;80;21611;-62
2021/05/10 09:20:34;;;;;;;6.00;4.62;;;;;;;17.44;53.83;101976.81;1735586;82;22022;-62
2021/05/10 09:23:11;;;;;;;8.83;4.65;;;;;;;17.42;53.74;101967.87;1732821;81;21134;-62
2021/05/10 09:25:44;;;;;;;8.83;5.20;;;;;;;17.39;54.72;101968.01;1752003;79;21133;-62
2021/05/10 09:28:25;;;;;;;9.20;5.00;;;;;;;17.36;54.87;101976.28;1765046;79;21126;-62
2021/05/10 09:30:58;;;;;;;10.43;4.90;;;;;;;17.34;53.77;101971.38;1722745;81;21674;-61
2021/05/10 09:33:28;;;;;;;9.90;5.30;;;;;;;17.31;52.98;101966.09;1764185;79;21115;-61
2021/05/10 09:36:06;;;;;;;5.45;4.47;;;;;;;17.32;52.85;101963.33;1787250;79;21111;-63
2021/05/10 09:38:36;;;;;;;5.53;4.42;;;;;;;17.39;52.86;101972.53;1793320;79;21454;-62
2021/05/10 09:41:09;;;;;;;9.00;4.15;;;;;;;17.42;53.49;101961.55;1776906;79;21111;-63
2021/05/10 09:43:39;;;;;;;8.93;3.83;;;;;;;17.43;53.88;101962.84;1788402;79;21098;-60
2021/05/10 09:46:13;;;;;;;8.03;3.95;;;;;;;17.45;53.68;101961.41;1775418;79;21108;-62
2021/05/10 09:48:44;;;;;;;7.53;4.08;;;;;;;17.45;53.86;101965.47;1716561;82;21117;-62
2021/05/10 09:51:16;;;;;;;6.08;4.03;;;;;;;17.37;54.22;101961.78;1733998;82;21411;-61
2021/05/10 09:53:50;;;;;;;8.85;4.05;;;;;;;17.29;54.21;101963.92;1735304;82;21169;-62
2021/05/10 09:58:58;;;;;;;5.92;4.00;;;;;;;17.20;55.88;101953.50;1736978;81;21476;-64
2021/05/10 10:01:46;;;;;;;4.95;3.70;;;;;;;17.09;56.96;101949.42;1708182;82;21142;-62
2021/05/10 10:04:20;;;;;;;5.90;4.00;;;;;;;16.94;57.43;101950.07;1736706;81;22151;-63
2021/05/10 10:06:48;;;;;;;8.55;3.90;;;;;;;16.84;58.60;101946.38;1738267;81;21147;-62
2021/05/10 10:09:17;;;;;;;5.62;4.17;;;;;;;16.76;59.54;101947.19;1747306;81;21116;-61
2021/05/10 10:11:45;;;;;;;7.15;3.70;;;;;;;16.69;58.34;101944.31;1756132;79;21151;-61
2021/05/10 10:14:14;;;;;;;5.65;3.70;;;;;;;16.60;58.55;101943.77;1742687;80;21209;-61
2021/05/10 10:16:46;;;;;;;5.17;3.83;;;;;;;16.48;59.31;101933.45;1739910;79;21778;-61
2021/05/10 10:19:14;;;;;;;7.75;3.95;;;;;;;16.33;60.01;101943.95;1757450;81;21135;-61
2021/05/10 10:21:43;;;;;;;6.42;3.72;;;;;;;16.22;61.09;101936.72;1745406;79;21032;-60
2021/05/10 10:24:11;;;;;;;5.55;4.00;;;;;;;16.11;62.02;101932.23;1717407;81;21689;-60
2021/05/10 10:26:41;;;;;;;3.60;2.45;;;;;;;16.01;62.66;101924.94;1743026;81;21251;-62
2021/05/10 10:29:13;;;;;;;3.60;2.42;;;;;;;15.98;60.14;101916.47;1737555;80;22328;-61
2021/05/10 10:31:46;;;;;;;2.95;2.00;;;;;;;16.00;59.45;101922.69;1737710;81;21152;-60
2021/05/10 10:34:33;;;;;;;4.53;2.22;;;;;;;16.00;57.60;101915.06;1709354;81;21183;-63
2021/05/10 10:37:04;;;;;;;4.22;2.92;;;;;;;16.02;57.49;101903.22;1737171;81;21212;-60
2021/05/10 10:39:51;;;;;;;4.67;3.25;;;;;;;16.02;61.02;101912.69;1719023;81;21212;-61
2021/05/10 10:42:30;;;;;;;5.55;2.42;;;;;;;15.99;62.26;101902.00;1743369;81;22150;-61
2021/05/10 10:45:02;;;;;;;4.30;2.50;;;;;;;15.98;61.46;101882.66;1766617;81;21113;-61
2021/05/10 10:47:43;;;;;;;3.92;2.37;;;;;;;16.00;59.33;101894.30;1742367;80;21555;-62
2021/05/10 10:50:14;;;;;;;2.90;2.05;;;;;;;15.98;58.97;101888.06;1744416;79;21116;-61
2021/05/10 10:52:57;;;;;;;3.58;2.35;;;;;;;15.97;59.71;101890.36;1760209;79;21100;-59
2021/05/10 10:55:27;;;;;;;3.42;2.00;;;;;;;15.96;60.37;101884.54;1755623;81;22274;-62
2021/05/10 10:58:18;;;;;;;3.80;2.42;;;;;;;15.95;60.59;101887.33;1755069;80;21268;-64
2021/05/10 11:01:07;;;;;;;3.00;2.40;;;;;;;15.95;61.53;101881.91;1732868;81;21194;-61
2021/05/10 11:03:37;;;;;;;4.58;2.27;;;;;;;15.95;62.59;101874.67;1714384;82;22014;-60
2021/05/10 11:06:08;;;;;;;2.42;2.10;;;;;;;15.97;63.61;101871.91;1739515;80;21114;-60
2021/05/10 11:08:46;;;;;;;4.20;2.05;;;;;;;15.93;64.62;101872.50;1738600;81;21630;-61
2021/05/10 11:11:32;;;;;;;6.35;2.40;;;;;;;15.93;64.97;101856.76;1735660;80;21231;-61
2021/05/10 11:14:02;;;;;;;6.20;2.30;;;;;;;15.95;61.21;101855.73;1734751;81;21199;-62
2021/05/10 11:16:50;;;;;;;6.28;2.10;;;;;;;15.91;58.66;101851.40;1736455;81;21211;-60
2021/05/10 11:19:34;;;;;;;5.53;1.75;;;;;;;15.87;57.92;101853.78;1772064;79;21218;-60
2021/05/10 11:22:23;;;;;;;4.03;2.30;;;;;;;15.85;57.82;101843.50;1734011;82;21270;-61
2021/05/10 11:24:53;;;;;;;4.12;2.17;;;;;;;15.86;57.28;101847.97;1745818;81;21266;-62
2021/05/10 11:27:25;;;;;;;2.50;2.00;;;;;;;15.87;57.18;101848.38;1758046;81;21198;-62
2021/05/10 11:29:53;;;;;;;5.30;2.33;;;;;;;15.88;55.98;101840.67;1747790;81;21238;-62
2021/05/10 11:32:25;;;;;;;3.17;1.85;;;;;;;15.87;55.86;101829.45;1761224;79;21206;-61
2021/05/10 11:34:53;;;;;;;3.25;1.65;;;;;;;15.87;55.23;101826.25;1770511;79;22071;-61
2021/05/10 11:37:27;;;;;;;3.08;2.10;;;;;;;15.89;55.53;101832.52;1735298;81;21286;-61
2021/05/10 11:40:00;;;;;;;3.60;1.62;;;;;;;15.95;55.45;101834.09;1788666;79;21781;-62
2021/05/10 11:42:28;;;;;;;2.62;1.50;;;;;;;16.04;55.08;101826.08;1788246;79;21863;-60
2021/05/10 11:45:00;;;;;;;2.50;1.72;;;;;;;16.08;55.21;101833.61;1809917;79;21209;-59
2021/05/10 11:47:30;;;;;;;2.72;1.50;;;;;;;16.10;55.25;101823.61;1798905;79;22242;-61
2021/05/10 11:50:01;;;;;;;4.62;1.72;;;;;;;16.12;55.17;101819.87;1782434;79;21349;-61
2021/05/10 11:52:30;;;;;;;2.25;1.60;;;;;;;16.14;54.30;101808.55;1786258;79;21205;-61
2021/05/10 11:55:01;;;;;;;4.22;1.55;;;;;;;16.15;53.79;101804.00;1779737;79;21467;-61